sensor_id;sensor_type;location;lat;lon;timestamp;P1;durP1;ratioP1;P2;durP2;ratioP2
18702;SDS011;9481;48.796;9.210;2022-11-09T00:02:24;4.50;;;2.73;;
18702;SDS011;9481;48.796;9.210;2022-11-09T00:04:49;2.70;;;2.10;;
18702;SDS011;9481;48.796;9.210;2022-11-09T00:07:15;3.77;;;2.73;;
18702;SDS011;9481;48.796;9.210;2022-11-09T00:09:41;4.07;;;2.57;;
18702;SDS011;9481;48.796;9.210;2022-11-09T00:12:06;3.73;;;2.50;;
18702;SDS011;9481;48.796;9.210;2022-11-09T00:14:33;2.93;;;2.23;;
18702;SDS011;9481;48.796;9.210;2022-11-09T00:16:59;2.70;;;2.13;;
18702;SDS011;9481;48.796;9.210;2022-11-09T00:19:25;3.00;;;2.40;;
18702;SDS011;9481;48.796;9.210;2022-11-09T00:21:51;2.43;;;2.23;;
18702;SDS011;9481;48.796;9.210;2022-11-09T00:24:17;3.57;;;2.63;;
18702;SDS011;9481;48.796;9.210;2022-11-09T00:26:42;4.13;;;2.73;;
18702;SDS011;9481;48.796;9.210;2022-11-09T00:29:08;6.27;;;2.40;;
18702;SDS011;9481;48.796;9.210;2022-11-09T00:31:34;3.07;;;2.60;;
18702;SDS011;9481;48.796;9.210;2022-11-09T00:34:00;5.53;;;3.20;;
18702;SDS011;9481;48.796;9.210;2022-11-09T00:36:26;3.43;;;2.53;;
18702;SDS011;9481;48.796;9.210;2022-11-09T00:38:54;3.20;;;2.67;;
18702;SDS011;9481;48.796;9.210;2022-11-09T00:41:23;3.23;;;2.53;;
18702;SDS011;9481;48.796;9.210;2022-11-09T00:43:50;5.57;;;2.63;;
18702;SDS011;9481;48.796;9.210;2022-11-09T00:46:19;4.27;;;2.80;;
18702;SDS011;9481;48.796;9.210;2022-11-09T00:48:46;3.03;;;2.20;;
18702;SDS011;9481;48.796;9.210;2022-11-09T00:51:11;3.23;;;2.60;;
18702;SDS011;9481;48.796;9.210;2022-11-09T00:53:37;3.90;;;2.77;;
18702;SDS011;9481;48.796;9.210;2022-11-09T00:56:06;4.43;;;2.50;;
18702;SDS011;9481;48.796;9.210;2022-11-09T00:58:37;4.30;;;3.00;;
18702;SDS011;9481;48.796;9.210;2022-11-09T01:01:05;3.73;;;2.70;;
18702;SDS011;9481;48.796;9.210;2022-11-09T01:03:41;4.30;;;3.13;;
18702;SDS011;9481;48.796;9.210;2022-11-09T01:06:08;4.87;;;2.90;;
18702;SDS011;9481;48.796;9.210;2022-11-09T01:08:44;4.47;;;2.80;;
18702;SDS011;9481;48.796;9.210;2022-11-09T01:11:10;3.70;;;2.90;;
18702;SDS011;9481;48.796;9.210;2022-11-09T01:13:37;3.97;;;2.50;;
18702;SDS011;9481;48.796;9.210;2022-11-09T01:16:04;3.50;;;2.60;;
18702;SDS011;9481;48.796;9.210;2022-11-09T01:18:37;4.03;;;2.93;;
18702;SDS011;9481;48.796;9.210;2022-11-09T01:21:04;4.20;;;2.90;;
18702;SDS011;9481;48.796;9.210;2022-11-09T01:23:32;3.30;;;2.60;;
18702;SDS011;9481;48.796;9.210;2022-11-09T01:26:02;5.10;;;2.97;;
18702;SDS011;9481;48.796;9.210;2022-11-09T01:28:32;7.40;;;2.97;;
18702;SDS011;9481;48.796;9.210;2022-11-09T01:31:02;4.37;;;2.67;;
18702;SDS011;9481;48.796;9.210;2022-11-09T01:33:31;4.80;;;2.73;;
18702;SDS011;9481;48.796;9.210;2022-11-09T01:36:07;4.00;;;3.17;;
18702;SDS011;9481;48.796;9.210;2022-11-09T01:38:54;5.13;;;2.90;;
18702;SDS011;9481;48.796;9.210;2022-11-09T01:41:24;4.53;;;3.10;;
18702;SDS011;9481;48.796;9.210;2022-11-09T01:44:02;3.80;;;3.17;;
18702;SDS011;9481;48.796;9.210;2022-11-09T01:46:47;4.90;;;3.20;;
18702;SDS011;9481;48.796;9.210;2022-11-09T01:52:15;3.87;;;2.70;;
18702;SDS011;9481;48.796;9.210;2022-11-09T01:54:47;4.57;;;3.30;;
18702;SDS011;9481;48.796;9.210;2022-11-09T01:57:27;4.30;;;2.60;;
18702;SDS011;9481;48.796;9.210;2022-11-09T02:00:05;5.77;;;2.60;;
18702;SDS011;9481;48.796;9.210;2022-11-09T02:02:35;4.13;;;2.23;;
18702;SDS011;9481;48.796;9.210;2022-11-09T02:05:07;3.70;;;2.90;;
18702;SDS011;9481;48.796;9.210;2022-11-09T02:07:39;3.90;;;2.57;;
18702;SDS011;9481;48.796;9.210;2022-11-09T02:10:07;3.13;;;2.70;;
18702;SDS011;9481;48.796;9.210;2022-11-09T02:12:48;3.77;;;2.50;;
18702;SDS011;9481;48.796;9.210;2022-11-09T02:15:16;4.60;;;2.30;;
18702;SDS011;9481;48.796;9.210;2022-11-09T02:17:42;3.80;;;2.27;;
18702;SDS011;9481;48.796;9.210;2022-11-09T02:20:13;3.57;;;2.20;;
18702;SDS011;9481;48.796;9.210;2022-11-09T02:22:40;2.97;;;2.27;;
18702;SDS011;9481;48.796;9.210;2022-11-09T02:25:07;4.40;;;2.33;;
18702;SDS011;9481;48.796;9.210;2022-11-09T02:27:35;3.80;;;2.50;;
18702;SDS011;9481;48.796;9.210;2022-11-09T02:30:01;3.77;;;2.37;;
18702;SDS011;9481;48.796;9.210;2022-11-09T02:32:29;2.80;;;2.13;;
18702;SDS011;9481;48.796;9.210;2022-11-09T02:34:55;3.00;;;2.40;;
18702;SDS011;9481;48.796;9.210;2022-11-09T02:37:27;4.10;;;2.13;;
18702;SDS011;9481;48.796;9.210;2022-11-09T02:40:10;3.90;;;2.37;;
18702;SDS011;9481;48.796;9.210;2022-11-09T02:43:05;4.07;;;2.10;;
18702;SDS011;9481;48.796;9.210;2022-11-09T02:45:34;3.73;;;1.93;;
18702;SDS011;9481;48.796;9.210;2022-11-09T02:48:00;2.60;;;1.87;;
18702;SDS011;9481;48.796;9.210;2022-11-09T02:50:27;2.73;;;2.00;;
18702;SDS011;9481;48.796;9.210;2022-11-09T02:52:53;2.20;;;1.70;;
18702;SDS011;9481;48.796;9.210;2022-11-09T02:55:18;2.13;;;1.73;;
18702;SDS011;9481;48.796;9.210;2022-11-09T02:57:44;3.30;;;1.73;;
18702;SDS011;9481;48.796;9.210;2022-11-09T03:00:10;2.00;;;1.80;;
18702;SDS011;9481;48.796;9.210;2022-11-09T03:02:36;3.27;;;1.70;;
18702;SDS011;9481;48.796;9.210;2022-11-09T03:05:03;1.97;;;1.50;;
18702;SDS011;9481;48.796;9.210;2022-11-09T03:07:29;2.60;;;1.90;;
18702;SDS011;9481;48.796;9.210;2022-11-09T03:09:54;2.87;;;1.80;;
18702;SDS011;9481;48.796;9.210;2022-11-09T03:12:20;2.20;;;1.77;;
18702;SDS011;9481;48.796;9.210;2022-11-09T03:14:56;3.60;;;1.43;;
18702;SDS011;9481;48.796;9.210;2022-11-09T03:17:27;1.60;;;1.40;;
18702;SDS011;9481;48.796;9.210;2022-11-09T03:19:53;3.83;;;1.70;;
18702;SDS011;9481;48.796;9.210;2022-11-09T03:22:19;1.90;;;1.67;;
18702;SDS011;9481;48.796;9.210;2022-11-09T03:24:45;2.53;;;1.77;;
18702;SDS011;9481;48.796;9.210;2022-11-09T03:27:11;1.73;;;1.63;;
18702;SDS011;9481;48.796;9.210;2022-11-09T03:29:38;2.13;;;1.63;;
18702;SDS011;9481;48.796;9.210;2022-11-09T03:32:04;3.53;;;1.80;;
18702;SDS011;9481;48.796;9.210;2022-11-09T03:34:30;3.43;;;1.80;;
18702;SDS011;9481;48.796;9.210;2022-11-09T03:36:56;2.20;;;1.70;;
18702;SDS011;9481;48.796;9.210;2022-11-09T03:39:22;3.23;;;2.33;;
18702;SDS011;9481;48.796;9.210;2022-11-09T03:41:48;3.13;;;2.10;;
18702;SDS011;9481;48.796;9.210;2022-11-09T03:44:14;3.90;;;1.90;;
18702;SDS011;9481;48.796;9.210;2022-11-09T03:46:39;5.30;;;2.10;;
18702;SDS011;9481;48.796;9.210;2022-11-09T03:49:05;2.60;;;2.17;;
18702;SDS011;9481;48.796;9.210;2022-11-09T03:51:31;3.87;;;2.03;;
18702;SDS011;9481;48.796;9.210;2022-11-09T03:53:57;3.17;;;1.90;;
18702;SDS011;9481;48.796;9.210;2022-11-09T03:56:22;3.70;;;2.13;;
18702;SDS011;9481;48.796;9.210;2022-11-09T03:58:48;3.57;;;2.30;;
18702;SDS011;9481;48.796;9.210;2022-11-09T04:01:14;3.17;;;2.10;;
18702;SDS011;9481;48.796;9.210;2022-11-09T04:03:40;4.17;;;2.10;;
18702;SDS011;9481;48.796;9.210;2022-11-09T04:06:05;3.97;;;2.07;;
18702;SDS011;9481;48.796;9.210;2022-11-09T04:08:31;3.07;;;2.10;;
18702;SDS011;9481;48.796;9.210;2022-11-09T04:10:57;2.87;;;1.97;;
18702;SDS011;9481;48.796;9.210;2022-11-09T04:13:23;2.87;;;2.03;;
18702;SDS011;9481;48.796;9.210;2022-11-09T04:15:48;3.80;;;2.43;;
18702;SDS011;9481;48.796;9.210;2022-11-09T04:18:14;4.37;;;2.30;;
18702;SDS011;9481;48.796;9.210;2022-11-09T04:20:41;2.73;;;2.37;;
18702;SDS011;9481;48.796;9.210;2022-11-09T04:23:09;5.03;;;2.20;;
18702;SDS011;9481;48.796;9.210;2022-11-09T04:25:37;2.83;;;2.30;;
18702;SDS011;9481;48.796;9.210;2022-11-09T04:28:06;3.20;;;2.27;;
18702;SDS011;9481;48.796;9.210;2022-11-09T04:30:36;3.00;;;2.37;;
18702;SDS011;9481;48.796;9.210;2022-11-09T04:33:03;2.63;;;2.00;;
18702;SDS011;9481;48.796;9.210;2022-11-09T04:35:31;2.63;;;2.10;;
18702;SDS011;9481;48.796;9.210;2022-11-09T04:37:59;3.63;;;2.47;;
18702;SDS011;9481;48.796;9.210;2022-11-09T04:40:30;3.33;;;2.07;;
18702;SDS011;9481;48.796;9.210;2022-11-09T04:43:02;5.17;;;2.30;;
18702;SDS011;9481;48.796;9.210;2022-11-09T04:45:33;3.03;;;2.27;;
18702;SDS011;9481;48.796;9.210;2022-11-09T04:48:00;3.43;;;1.90;;
18702;SDS011;9481;48.796;9.210;2022-11-09T04:50:28;4.10;;;2.30;;
18702;SDS011;9481;48.796;9.210;2022-11-09T04:52:55;2.87;;;2.33;;
18702;SDS011;9481;48.796;9.210;2022-11-09T04:55:36;2.80;;;1.80;;
18702;SDS011;9481;48.796;9.210;2022-11-09T04:58:04;3.77;;;2.03;;
18702;SDS011;9481;48.796;9.210;2022-11-09T05:00:30;2.83;;;1.83;;
18702;SDS011;9481;48.796;9.210;2022-11-09T05:03:03;2.87;;;1.80;;
18702;SDS011;9481;48.796;9.210;2022-11-09T05:05:34;2.93;;;2.23;;
18702;SDS011;9481;48.796;9.210;2022-11-09T05:08:01;3.50;;;2.20;;
18702;SDS011;9481;48.796;9.210;2022-11-09T05:10:28;2.73;;;1.90;;
18702;SDS011;9481;48.796;9.210;2022-11-09T05:12:56;2.77;;;2.07;;
18702;SDS011;9481;48.796;9.210;2022-11-09T05:15:30;2.80;;;1.90;;
18702;SDS011;9481;48.796;9.210;2022-11-09T05:17:56;2.80;;;1.93;;
18702;SDS011;9481;48.796;9.210;2022-11-09T05:20:22;2.37;;;2.00;;
18702;SDS011;9481;48.796;9.210;2022-11-09T05:22:48;2.80;;;1.90;;
18702;SDS011;9481;48.796;9.210;2022-11-09T05:25:33;4.50;;;1.90;;
18702;SDS011;9481;48.796;9.210;2022-11-09T05:27:59;2.93;;;1.93;;
18702;SDS011;9481;48.796;9.210;2022-11-09T05:30:25;2.77;;;2.10;;
18702;SDS011;9481;48.796;9.210;2022-11-09T05:32:51;2.93;;;2.07;;
18702;SDS011;9481;48.796;9.210;2022-11-09T05:35:16;4.13;;;2.10;;
18702;SDS011;9481;48.796;9.210;2022-11-09T05:37:45;3.13;;;2.03;;
18702;SDS011;9481;48.796;9.210;2022-11-09T05:40:12;4.10;;;2.20;;
18702;SDS011;9481;48.796;9.210;2022-11-09T05:42:39;3.50;;;1.90;;
18702;SDS011;9481;48.796;9.210;2022-11-09T05:45:06;4.50;;;2.40;;
18702;SDS011;9481;48.796;9.210;2022-11-09T05:47:38;2.43;;;1.83;;
18702;SDS011;9481;48.796;9.210;2022-11-09T05:50:07;2.93;;;2.10;;
18702;SDS011;9481;48.796;9.210;2022-11-09T05:52:36;3.20;;;2.00;;
18702;SDS011;9481;48.796;9.210;2022-11-09T05:55:02;3.33;;;2.10;;
18702;SDS011;9481;48.796;9.210;2022-11-09T05:57:29;3.07;;;2.10;;
18702;SDS011;9481;48.796;9.210;2022-11-09T05:59:55;5.20;;;2.30;;
18702;SDS011;9481;48.796;9.210;2022-11-09T06:02:21;3.37;;;2.10;;
18702;SDS011;9481;48.796;9.210;2022-11-09T06:04:47;3.27;;;2.10;;
18702;SDS011;9481;48.796;9.210;2022-11-09T06:07:13;3.87;;;2.40;;
18702;SDS011;9481;48.796;9.210;2022-11-09T06:09:39;2.93;;;2.03;;
18702;SDS011;9481;48.796;9.210;2022-11-09T06:12:05;3.23;;;2.50;;
18702;SDS011;9481;48.796;9.210;2022-11-09T06:14:30;4.30;;;2.40;;
18702;SDS011;9481;48.796;9.210;2022-11-09T06:16:56;3.10;;;2.50;;
18702;SDS011;9481;48.796;9.210;2022-11-09T06:19:22;4.77;;;2.47;;
18702;SDS011;9481;48.796;9.210;2022-11-09T06:21:47;3.93;;;2.60;;
18702;SDS011;9481;48.796;9.210;2022-11-09T06:24:13;4.33;;;2.70;;
18702;SDS011;9481;48.796;9.210;2022-11-09T06:26:39;5.47;;;2.67;;
18702;SDS011;9481;48.796;9.210;2022-11-09T06:29:04;3.57;;;2.73;;
18702;SDS011;9481;48.796;9.210;2022-11-09T06:31:30;3.57;;;2.40;;
18702;SDS011;9481;48.796;9.210;2022-11-09T06:33:56;3.03;;;2.43;;
18702;SDS011;9481;48.796;9.210;2022-11-09T06:36:22;4.33;;;2.50;;
18702;SDS011;9481;48.796;9.210;2022-11-09T06:38:48;4.53;;;2.50;;
18702;SDS011;9481;48.796;9.210;2022-11-09T06:41:16;6.87;;;2.50;;
18702;SDS011;9481;48.796;9.210;2022-11-09T06:43:42;3.00;;;2.70;;
18702;SDS011;9481;48.796;9.210;2022-11-09T06:46:09;5.20;;;2.80;;
18702;SDS011;9481;48.796;9.210;2022-11-09T06:48:37;2.80;;;2.33;;
18702;SDS011;9481;48.796;9.210;2022-11-09T06:51:04;7.10;;;3.00;;
18702;SDS011;9481;48.796;9.210;2022-11-09T06:53:31;3.70;;;2.60;;
18702;SDS011;9481;48.796;9.210;2022-11-09T06:56:02;3.17;;;2.23;;
18702;SDS011;9481;48.796;9.210;2022-11-09T06:58:30;4.77;;;2.50;;
18702;SDS011;9481;48.796;9.210;2022-11-09T07:00:56;4.10;;;2.90;;
18702;SDS011;9481;48.796;9.210;2022-11-09T07:03:23;4.33;;;2.67;;
18702;SDS011;9481;48.796;9.210;2022-11-09T07:05:50;4.33;;;2.73;;
18702;SDS011;9481;48.796;9.210;2022-11-09T07:08:17;3.70;;;2.87;;
18702;SDS011;9481;48.796;9.210;2022-11-09T07:10:43;4.67;;;2.70;;
18702;SDS011;9481;48.796;9.210;2022-11-09T07:13:09;3.40;;;2.20;;
18702;SDS011;9481;48.796;9.210;2022-11-09T07:15:36;4.33;;;2.30;;
18702;SDS011;9481;48.796;9.210;2022-11-09T07:18:04;2.57;;;2.20;;
18702;SDS011;9481;48.796;9.210;2022-11-09T07:20:32;4.33;;;2.20;;
18702;SDS011;9481;48.796;9.210;2022-11-09T07:22:58;4.50;;;2.47;;
18702;SDS011;9481;48.796;9.210;2022-11-09T07:25:23;4.13;;;2.13;;
18702;SDS011;9481;48.796;9.210;2022-11-09T07:27:51;2.43;;;2.07;;
18702;SDS011;9481;48.796;9.210;2022-11-09T07:30:17;3.23;;;2.37;;
18702;SDS011;9481;48.796;9.210;2022-11-09T07:32:43;2.47;;;1.80;;
18702;SDS011;9481;48.796;9.210;2022-11-09T07:35:09;2.47;;;1.87;;
18702;SDS011;9481;48.796;9.210;2022-11-09T07:37:35;2.60;;;1.63;;
18702;SDS011;9481;48.796;9.210;2022-11-09T07:40:02;1.50;;;1.30;;
18702;SDS011;9481;48.796;9.210;2022-11-09T07:42:28;2.33;;;1.77;;
18702;SDS011;9481;48.796;9.210;2022-11-09T07:44:54;1.53;;;1.13;;
18702;SDS011;9481;48.796;9.210;2022-11-09T07:47:19;1.60;;;1.20;;
18702;SDS011;9481;48.796;9.210;2022-11-09T07:49:45;1.93;;;1.33;;
18702;SDS011;9481;48.796;9.210;2022-11-09T07:52:11;2.17;;;1.30;;
18702;SDS011;9481;48.796;9.210;2022-11-09T07:54:37;1.50;;;1.40;;
18702;SDS011;9481;48.796;9.210;2022-11-09T07:57:04;2.90;;;1.40;;
18702;SDS011;9481;48.796;9.210;2022-11-09T07:59:31;2.50;;;1.50;;
18702;SDS011;9481;48.796;9.210;2022-11-09T08:01:57;1.83;;;1.60;;
18702;SDS011;9481;48.796;9.210;2022-11-09T08:04:23;2.90;;;1.30;;
18702;SDS011;9481;48.796;9.210;2022-11-09T08:06:52;2.53;;;1.50;;
18702;SDS011;9481;48.796;9.210;2022-11-09T08:09:18;2.30;;;1.40;;
18702;SDS011;9481;48.796;9.210;2022-11-09T08:11:44;2.00;;;1.43;;
18702;SDS011;9481;48.796;9.210;2022-11-09T08:14:10;4.47;;;1.80;;
18702;SDS011;9481;48.796;9.210;2022-11-09T08:16:36;3.23;;;1.53;;
18702;SDS011;9481;48.796;9.210;2022-11-09T08:19:02;2.20;;;1.80;;
18702;SDS011;9481;48.796;9.210;2022-11-09T08:21:28;2.50;;;1.80;;
18702;SDS011;9481;48.796;9.210;2022-11-09T08:23:53;2.93;;;2.07;;
18702;SDS011;9481;48.796;9.210;2022-11-09T08:26:19;3.47;;;1.73;;
18702;SDS011;9481;48.796;9.210;2022-11-09T08:28:44;2.40;;;2.10;;
18702;SDS011;9481;48.796;9.210;2022-11-09T08:31:10;2.37;;;2.00;;
18702;SDS011;9481;48.796;9.210;2022-11-09T08:33:37;2.67;;;1.93;;
18702;SDS011;9481;48.796;9.210;2022-11-09T08:36:12;2.67;;;1.90;;
18702;SDS011;9481;48.796;9.210;2022-11-09T08:38:41;2.27;;;1.97;;
18702;SDS011;9481;48.796;9.210;2022-11-09T08:41:09;2.70;;;1.80;;
18702;SDS011;9481;48.796;9.210;2022-11-09T08:43:36;2.13;;;1.80;;
18702;SDS011;9481;48.796;9.210;2022-11-09T08:46:02;3.97;;;1.80;;
18702;SDS011;9481;48.796;9.210;2022-11-09T08:48:28;3.00;;;1.90;;
18702;SDS011;9481;48.796;9.210;2022-11-09T08:50:55;2.57;;;1.73;;
18702;SDS011;9481;48.796;9.210;2022-11-09T08:53:23;3.07;;;2.30;;
18702;SDS011;9481;48.796;9.210;2022-11-09T08:55:51;2.80;;;1.67;;
18702;SDS011;9481;48.796;9.210;2022-11-09T08:58:17;1.60;;;1.40;;
18702;SDS011;9481;48.796;9.210;2022-11-09T09:00:44;2.10;;;1.60;;
18702;SDS011;9481;48.796;9.210;2022-11-09T09:03:10;1.83;;;1.43;;
18702;SDS011;9481;48.796;9.210;2022-11-09T09:05:36;2.27;;;1.50;;
18702;SDS011;9481;48.796;9.210;2022-11-09T09:08:03;2.90;;;1.60;;
18702;SDS011;9481;48.796;9.210;2022-11-09T09:10:31;2.73;;;1.30;;
18702;SDS011;9481;48.796;9.210;2022-11-09T09:12:59;2.27;;;1.47;;
18702;SDS011;9481;48.796;9.210;2022-11-09T09:15:26;2.30;;;1.10;;
18702;SDS011;9481;48.796;9.210;2022-11-09T09:17:52;2.03;;;1.20;;
18702;SDS011;9481;48.796;9.210;2022-11-09T09:20:18;1.37;;;1.03;;
18702;SDS011;9481;48.796;9.210;2022-11-09T09:22:43;0.93;;;0.93;;
18702;SDS011;9481;48.796;9.210;2022-11-09T09:25:09;1.60;;;1.07;;
18702;SDS011;9481;48.796;9.210;2022-11-09T09:27:35;3.00;;;1.03;;
18702;SDS011;9481;48.796;9.210;2022-11-09T09:30:01;1.83;;;1.17;;
18702;SDS011;9481;48.796;9.210;2022-11-09T09:32:28;1.37;;;1.20;;
18702;SDS011;9481;48.796;9.210;2022-11-09T09:34:54;1.37;;;1.20;;
18702;SDS011;9481;48.796;9.210;2022-11-09T09:37:20;1.47;;;1.17;;
18702;SDS011;9481;48.796;9.210;2022-11-09T09:39:46;1.27;;;1.17;;
18702;SDS011;9481;48.796;9.210;2022-11-09T09:42:31;2.93;;;1.30;;
18702;SDS011;9481;48.796;9.210;2022-11-09T09:45:11;1.07;;;1.00;;
18702;SDS011;9481;48.796;9.210;2022-11-09T09:47:47;1.83;;;1.40;;
18702;SDS011;9481;48.796;9.210;2022-11-09T09:50:21;1.63;;;1.20;;
18702;SDS011;9481;48.796;9.210;2022-11-09T09:52:59;1.23;;;1.00;;
18702;SDS011;9481;48.796;9.210;2022-11-09T09:55:38;1.20;;;1.10;;
18702;SDS011;9481;48.796;9.210;2022-11-09T09:58:12;1.30;;;1.10;;
18702;SDS011;9481;48.796;9.210;2022-11-09T10:00:47;1.20;;;1.10;;
18702;SDS011;9481;48.796;9.210;2022-11-09T10:03:20;1.43;;;1.20;;
18702;SDS011;9481;48.796;9.210;2022-11-09T10:05:53;1.50;;;1.20;;
18702;SDS011;9481;48.796;9.210;2022-11-09T10:18:17;2.10;;;1.27;;
18702;SDS011;9481;48.796;9.210;2022-11-09T10:27:20;1.70;;;1.33;;
18702;SDS011;9481;48.796;9.210;2022-11-09T10:30:01;2.03;;;1.10;;
18702;SDS011;9481;48.796;9.210;2022-11-09T10:32:41;1.63;;;1.10;;
18702;SDS011;9481;48.796;9.210;2022-11-09T10:37:42;2.80;;;1.27;;
18702;SDS011;9481;48.796;9.210;2022-11-09T10:40:14;2.70;;;1.30;;
18702;SDS011;9481;48.796;9.210;2022-11-09T10:42:53;1.60;;;1.20;;
18702;SDS011;9481;48.796;9.210;2022-11-09T10:45:30;1.50;;;1.23;;
18702;SDS011;9481;48.796;9.210;2022-11-09T10:47:59;2.53;;;1.03;;
18702;SDS011;9481;48.796;9.210;2022-11-09T10:50:29;1.20;;;1.10;;
18702;SDS011;9481;48.796;9.210;2022-11-09T10:53:15;1.07;;;0.97;;
18702;SDS011;9481;48.796;9.210;2022-11-09T10:58:47;1.50;;;1.10;;
18702;SDS011;9481;48.796;9.210;2022-11-09T11:01:18;2.40;;;1.00;;
18702;SDS011;9481;48.796;9.210;2022-11-09T11:03:50;1.33;;;1.00;;
18702;SDS011;9481;48.796;9.210;2022-11-09T11:11:23;3.20;;;1.10;;
18702;SDS011;9481;48.796;9.210;2022-11-09T11:16:39;1.30;;;1.17;;
18702;SDS011;9481;48.796;9.210;2022-11-09T11:19:24;1.93;;;1.20;;
18702;SDS011;9481;48.796;9.210;2022-11-09T11:24:43;2.30;;;1.20;;
18702;SDS011;9481;48.796;9.210;2022-11-09T11:28:05;1.50;;;1.20;;
18702;SDS011;9481;48.796;9.210;2022-11-09T11:30:11;3.37;;;1.63;;
18702;SDS011;9481;48.796;9.210;2022-11-09T11:32:43;1.97;;;1.30;;
18702;SDS011;9481;48.796;9.210;2022-11-09T11:35:16;1.93;;;1.20;;
18702;SDS011;9481;48.796;9.210;2022-11-09T11:38:13;1.63;;;1.20;;
18702;SDS011;9481;48.796;9.210;2022-11-09T11:49:26;2.07;;;1.13;;
18702;SDS011;9481;48.796;9.210;2022-11-09T12:03:39;1.40;;;1.10;;
18702;SDS011;9481;48.796;9.210;2022-11-09T12:06:33;2.13;;;1.50;;
18702;SDS011;9481;48.796;9.210;2022-11-09T12:15:03;1.43;;;1.10;;
18702;SDS011;9481;48.796;9.210;2022-11-09T12:18:02;3.47;;;1.50;;
18702;SDS011;9481;48.796;9.210;2022-11-09T12:21:16;1.87;;;1.17;;
18702;SDS011;9481;48.796;9.210;2022-11-09T12:24:22;2.67;;;1.30;;
18702;SDS011;9481;48.796;9.210;2022-11-09T12:27:11;2.30;;;1.53;;
18702;SDS011;9481;48.796;9.210;2022-11-09T12:29:54;1.60;;;1.20;;
18702;SDS011;9481;48.796;9.210;2022-11-09T12:38:15;3.17;;;1.50;;
18702;SDS011;9481;48.796;9.210;2022-11-09T12:40:58;3.00;;;1.97;;
18702;SDS011;9481;48.796;9.210;2022-11-09T12:43:34;2.73;;;1.80;;
18702;SDS011;9481;48.796;9.210;2022-11-09T12:46:30;2.17;;;1.20;;
18702;SDS011;9481;48.796;9.210;2022-11-09T12:49:03;2.13;;;1.20;;
18702;SDS011;9481;48.796;9.210;2022-11-09T12:51:30;2.43;;;1.13;;
18702;SDS011;9481;48.796;9.210;2022-11-09T12:53:59;2.07;;;1.20;;
18702;SDS011;9481;48.796;9.210;2022-11-09T12:56:34;3.23;;;1.00;;
18702;SDS011;9481;48.796;9.210;2022-11-09T12:59:19;1.67;;;1.30;;
18702;SDS011;9481;48.796;9.210;2022-11-09T13:01:58;1.33;;;1.20;;
18702;SDS011;9481;48.796;9.210;2022-11-09T13:04:25;2.27;;;1.40;;
18702;SDS011;9481;48.796;9.210;2022-11-09T13:07:13;2.17;;;1.30;;
18702;SDS011;9481;48.796;9.210;2022-11-09T13:09:53;1.93;;;1.43;;
18702;SDS011;9481;48.796;9.210;2022-11-09T13:12:31;1.77;;;1.27;;
18702;SDS011;9481;48.796;9.210;2022-11-09T13:15:11;1.70;;;1.00;;
18702;SDS011;9481;48.796;9.210;2022-11-09T13:17:51;1.10;;;1.00;;
18702;SDS011;9481;48.796;9.210;2022-11-09T13:20:47;2.47;;;1.10;;
18702;SDS011;9481;48.796;9.210;2022-11-09T13:23:48;1.90;;;1.40;;
18702;SDS011;9481;48.796;9.210;2022-11-09T13:26:19;1.93;;;1.60;;
18702;SDS011;9481;48.796;9.210;2022-11-09T13:29:06;1.20;;;1.10;;
18702;SDS011;9481;48.796;9.210;2022-11-09T13:42:59;1.90;;;0.90;;
18702;SDS011;9481;48.796;9.210;2022-11-09T13:51:10;2.00;;;1.10;;
18702;SDS011;9481;48.796;9.210;2022-11-09T13:53:53;3.00;;;1.97;;
18702;SDS011;9481;48.796;9.210;2022-11-09T13:59:08;3.27;;;1.97;;
18702;SDS011;9481;48.796;9.210;2022-11-09T14:01:53;2.27;;;1.80;;
18702;SDS011;9481;48.796;9.210;2022-11-09T14:09:49;2.30;;;1.70;;
18702;SDS011;9481;48.796;9.210;2022-11-09T14:24:19;2.77;;;2.00;;
18702;SDS011;9481;48.796;9.210;2022-11-09T14:27:02;4.83;;;1.87;;
18702;SDS011;9481;48.796;9.210;2022-11-09T14:29:35;2.67;;;2.20;;
18702;SDS011;9481;48.796;9.210;2022-11-09T14:37:50;3.83;;;2.43;;
18702;SDS011;9481;48.796;9.210;2022-11-09T14:40:21;2.20;;;1.90;;
18702;SDS011;9481;48.796;9.210;2022-11-09T14:43:00;2.57;;;1.80;;
18702;SDS011;9481;48.796;9.210;2022-11-09T14:45:49;2.90;;;1.80;;
18702;SDS011;9481;48.796;9.210;2022-11-09T14:48:18;3.00;;;2.13;;
18702;SDS011;9481;48.796;9.210;2022-11-09T14:50:46;5.83;;;2.03;;
18702;SDS011;9481;48.796;9.210;2022-11-09T14:53:24;4.67;;;1.70;;
18702;SDS011;9481;48.796;9.210;2022-11-09T14:55:54;2.87;;;2.40;;
18702;SDS011;9481;48.796;9.210;2022-11-09T14:58:23;2.80;;;2.20;;
18702;SDS011;9481;48.796;9.210;2022-11-09T15:01:14;3.93;;;2.20;;
18702;SDS011;9481;48.796;9.210;2022-11-09T15:06:34;4.80;;;2.20;;
18702;SDS011;9481;48.796;9.210;2022-11-09T15:09:13;3.33;;;2.30;;
18702;SDS011;9481;48.796;9.210;2022-11-09T15:11:42;4.07;;;2.10;;
18702;SDS011;9481;48.796;9.210;2022-11-09T15:16:43;2.63;;;2.17;;
18702;SDS011;9481;48.796;9.210;2022-11-09T15:22:03;4.23;;;1.80;;
18702;SDS011;9481;48.796;9.210;2022-11-09T15:24:42;3.43;;;1.80;;
18702;SDS011;9481;48.796;9.210;2022-11-09T15:27:32;3.60;;;1.77;;
18702;SDS011;9481;48.796;9.210;2022-11-09T15:29:59;2.77;;;1.70;;
18702;SDS011;9481;48.796;9.210;2022-11-09T15:32:25;4.03;;;1.50;;
18702;SDS011;9481;48.796;9.210;2022-11-09T15:34:56;2.20;;;1.60;;
18702;SDS011;9481;48.796;9.210;2022-11-09T15:37:28;2.63;;;1.40;;
18702;SDS011;9481;48.796;9.210;2022-11-09T15:39:55;2.00;;;1.30;;
18702;SDS011;9481;48.796;9.210;2022-11-09T15:42:23;1.50;;;1.40;;
18702;SDS011;9481;48.796;9.210;2022-11-09T15:44:51;1.83;;;1.60;;
18702;SDS011;9481;48.796;9.210;2022-11-09T15:50:00;2.37;;;1.80;;
18702;SDS011;9481;48.796;9.210;2022-11-09T15:52:38;3.07;;;1.40;;
18702;SDS011;9481;48.796;9.210;2022-11-09T15:55:04;2.30;;;1.43;;
18702;SDS011;9481;48.796;9.210;2022-11-09T15:57:30;2.33;;;1.50;;
18702;SDS011;9481;48.796;9.210;2022-11-09T15:59:56;1.53;;;1.40;;
18702;SDS011;9481;48.796;9.210;2022-11-09T16:02:23;2.00;;;1.50;;
18702;SDS011;9481;48.796;9.210;2022-11-09T16:04:49;2.60;;;1.60;;
18702;SDS011;9481;48.796;9.210;2022-11-09T16:07:15;2.27;;;1.43;;
18702;SDS011;9481;48.796;9.210;2022-11-09T16:09:41;3.43;;;2.30;;
18702;SDS011;9481;48.796;9.210;2022-11-09T16:12:07;3.40;;;2.27;;
18702;SDS011;9481;48.796;9.210;2022-11-09T16:14:33;5.43;;;2.40;;
18702;SDS011;9481;48.796;9.210;2022-11-09T16:16:59;3.80;;;2.23;;
18702;SDS011;9481;48.796;9.210;2022-11-09T16:19:25;2.87;;;2.10;;
18702;SDS011;9481;48.796;9.210;2022-11-09T16:21:51;3.80;;;2.53;;
18702;SDS011;9481;48.796;9.210;2022-11-09T16:24:18;3.07;;;2.30;;
18702;SDS011;9481;48.796;9.210;2022-11-09T16:26:44;7.33;;;2.50;;
18702;SDS011;9481;48.796;9.210;2022-11-09T16:29:10;7.33;;;2.83;;
18702;SDS011;9481;48.796;9.210;2022-11-09T16:31:37;7.33;;;2.63;;
18702;SDS011;9481;48.796;9.210;2022-11-09T16:34:03;3.23;;;2.40;;
18702;SDS011;9481;48.796;9.210;2022-11-09T16:36:28;5.77;;;2.53;;
18702;SDS011;9481;48.796;9.210;2022-11-09T16:38:55;3.70;;;2.47;;
18702;SDS011;9481;48.796;9.210;2022-11-09T16:41:22;3.20;;;2.07;;
18702;SDS011;9481;48.796;9.210;2022-11-09T16:43:50;3.83;;;2.20;;
18702;SDS011;9481;48.796;9.210;2022-11-09T16:46:19;7.20;;;3.07;;
18702;SDS011;9481;48.796;9.210;2022-11-09T16:48:51;6.23;;;3.50;;
18702;SDS011;9481;48.796;9.210;2022-11-09T16:51:18;5.03;;;2.73;;
18702;SDS011;9481;48.796;9.210;2022-11-09T16:53:44;2.60;;;1.90;;
18702;SDS011;9481;48.796;9.210;2022-11-09T16:56:10;2.23;;;1.50;;
18702;SDS011;9481;48.796;9.210;2022-11-09T16:58:36;3.03;;;1.43;;
18702;SDS011;9481;48.796;9.210;2022-11-09T17:01:02;1.87;;;1.40;;
18702;SDS011;9481;48.796;9.210;2022-11-09T17:03:28;4.03;;;1.40;;
18702;SDS011;9481;48.796;9.210;2022-11-09T17:05:58;3.13;;;1.30;;
18702;SDS011;9481;48.796;9.210;2022-11-09T17:08:25;2.13;;;1.40;;
18702;SDS011;9481;48.796;9.210;2022-11-09T17:10:52;2.40;;;1.27;;
18702;SDS011;9481;48.796;9.210;2022-11-09T17:13:18;4.33;;;1.50;;
18702;SDS011;9481;48.796;9.210;2022-11-09T17:15:45;2.77;;;1.50;;
18702;SDS011;9481;48.796;9.210;2022-11-09T17:18:16;2.20;;;1.30;;
18702;SDS011;9481;48.796;9.210;2022-11-09T17:20:42;2.97;;;1.47;;